Old Mobeetie, Texas
Current Conditions -  °F | °C
As of 6:15 PM on Wednesday 26 Nov 2014 (Local Time) from KHHF Reporting Station
Clear Clear  
Wind Chill: 44°   Ceiling: Unl
Heat Index: 44°   Visibility: NA
Dew Point: 22°   Wind: 3mph
Humidity: 41%   Direction: 10°N
Pressure: 30.32"   Gusts: NA
Location:  35.5155°N, 100.433°W
Report Text: KHHF 270015Z AUTO 01003KT CLR 07/M06 A3032 RMK AO2 T00661058 PWINO
Loading
Personal Weather Stations






























Interactive Weather Map New forecast layout! Learn more

10-Day Weather Forecast

Advertisements
Track Severe Weather on mobile